Costa Serena — ICAZ — position and weather

sailwx.info

Track history (hours):
 
Tides and Currents Weather Stations Pressure Air Temp Water Temp Dewpoint Dewpoint Depression Visibility Wind Speed Wind Dir Waves Ship Positions

Costa Serena

Last reported at 2019-Oct-22 19:49 UTC. Time now 2019-Oct-23 20:55 UTC.
Position N 38°48' E 121°05'.

Length 290 m; draft 8.3 m.

Type: Ship. MMSI: 247187600.

Date/timePositionNaut miles runAvg speedWind from/ knotsBaromVisibWave heightAir tempDewpointWater temp
2019-Oct-22 19:49N 38°48' E 121°05'1 4.4
2019-Oct-22 19:30N 38°48' E 121°03'816.6
2019-Oct-22 19:00N 38°45' E 120°53'918.9
2019-Oct-22 18:30N 38°41' E 120°42'2018.9
2019-Oct-22 17:26N 38°38' E 120°17'5 0.2
2019-Oct-21 18:40N 38°42' E 120°13'47913.8
2019-Oct-20 07:58N 35°04' E 129°07'4 8.5
2019-Oct-20 07:30N 35°07' E 129°03'0 0.1
2019-Oct-20 06:58N 35°07' E 129°03'0 0.0
2019-Oct-20 06:28N 35°07' E 129°03'0 0.0
2019-Oct-20 06:00N 35°07' E 129°03'0 0.0
2019-Oct-20 05:27N 35°07' E 129°03'0 0.0
2019-Oct-20 05:00N 35°07' E 129°03'0 0.0
2019-Oct-20 04:30N 35°07' E 129°03'0 0.0
2019-Oct-20 04:00N 35°07' E 129°03'0 0.0
2019-Oct-20 03:29N 35°07' E 129°03'0 0.0
2019-Oct-20 02:59N 35°07' E 129°03'0 0.0
2019-Oct-20 02:29N 35°07' E 129°03'0 0.0
2019-Oct-20 01:59N 35°07' E 129°03'0 0.0
2019-Oct-20 01:28N 35°07' E 129°03'0 0.0
2019-Oct-20 00:58N 35°07' E 129°03'0 0.0
2019-Oct-20 00:29N 35°07' E 129°03'0 0.0
2019-Oct-19 23:58N 35°07' E 129°03'0 0.0
2019-Oct-19 23:28N 35°07' E 129°03'0 0.0
2019-Oct-19 23:00N 35°07' E 129°03'1 2.8
2019-Oct-19 22:30N 35°06' E 129°04'5 9.6
2019-Oct-19 22:00N 35°04' E 129°10'917.7
2019-Oct-19 21:30N 35°06' E 129°21'  
Track history (hours):
 
Tides and Currents Weather Stations Pressure Air Temp Water Temp Dewpoint Dewpoint Depression Visibility Wind Speed Wind Dir Waves Ship Positions

Costa Serena

Last reported at 2019-Oct-22 19:49 UTC. Time now 2019-Oct-23 20:55 UTC.
Position N 38°48' E 121°05'.

Length 290 m; draft 8.3 m.

Type: Ship. MMSI: 247187600.

Date/timePositionNaut miles runAvg speedWind from/ knotsBaromVisibWave heightAir tempDewpointWater temp
2019-Oct-22 19:49N 38°48' E 121°05'1 4.4
2019-Oct-22 19:30N 38°48' E 121°03'816.6
2019-Oct-22 19:00N 38°45' E 120°53'918.9
2019-Oct-22 18:30N 38°41' E 120°42'2018.9
2019-Oct-22 17:26N 38°38' E 120°17'5 0.2
2019-Oct-21 18:40N 38°42' E 120°13'47913.8
2019-Oct-20 07:58N 35°04' E 129°07'4 8.5
2019-Oct-20 07:30N 35°07' E 129°03'0 0.1
2019-Oct-20 06:58N 35°07' E 129°03'0 0.0
2019-Oct-20 06:28N 35°07' E 129°03'0 0.0
2019-Oct-20 06:00N 35°07' E 129°03'0 0.0
2019-Oct-20 05:27N 35°07' E 129°03'0 0.0
2019-Oct-20 05:00N 35°07' E 129°03'0 0.0
2019-Oct-20 04:30N 35°07' E 129°03'0 0.0
2019-Oct-20 04:00N 35°07' E 129°03'0 0.0
2019-Oct-20 03:29N 35°07' E 129°03'0 0.0
2019-Oct-20 02:59N 35°07' E 129°03'0 0.0
2019-Oct-20 02:29N 35°07' E 129°03'0 0.0
2019-Oct-20 01:59N 35°07' E 129°03'0 0.0
2019-Oct-20 01:28N 35°07' E 129°03'0 0.0
2019-Oct-20 00:58N 35°07' E 129°03'0 0.0
2019-Oct-20 00:29N 35°07' E 129°03'0 0.0
2019-Oct-19 23:58N 35°07' E 129°03'0 0.0
2019-Oct-19 23:28N 35°07' E 129°03'0 0.0
2019-Oct-19 23:00N 35°07' E 129°03'1 2.8
2019-Oct-19 22:30N 35°06' E 129°04'5 9.6
2019-Oct-19 22:00N 35°04' E 129°10'917.7
2019-Oct-19 21:30N 35°06' E 129°21'  

Dump ship's entire track history